sensor_id;sensor_type;location;lat;lon;timestamp;temperature;humidity
67529;DHT22;54366;51.980;5.856;2023-06-26T00:00:15;24.50;61.10
67529;DHT22;54366;51.980;5.856;2023-06-26T00:02:49;24.40;60.80
67529;DHT22;54366;51.980;5.856;2023-06-26T00:05:22;24.40;60.90
67529;DHT22;54366;51.980;5.856;2023-06-26T00:07:55;24.30;60.70
67529;DHT22;54366;51.980;5.856;2023-06-26T00:10:28;24.30;60.80
67529;DHT22;54366;51.980;5.856;2023-06-26T00:13:01;24.20;61.20
67529;DHT22;54366;51.980;5.856;2023-06-26T00:15:35;24.20;61.30
67529;DHT22;54366;51.980;5.856;2023-06-26T00:18:08;24.10;61.30
67529;DHT22;54366;51.980;5.856;2023-06-26T00:20:34;24.10;61.60
67529;DHT22;54366;51.980;5.856;2023-06-26T00:23:07;24.10;62.80
67529;DHT22;54366;51.980;5.856;2023-06-26T00:25:40;24.10;63.30
67529;DHT22;54366;51.980;5.856;2023-06-26T00:28:13;24.00;62.70
67529;DHT22;54366;51.980;5.856;2023-06-26T00:30:52;24.00;63.30
67529;DHT22;54366;51.980;5.856;2023-06-26T00:33:25;24.00;63.20
67529;DHT22;54366;51.980;5.856;2023-06-26T00:35:58;24.00;62.90
67529;DHT22;54366;51.980;5.856;2023-06-26T00:38:31;23.90;63.60
67529;DHT22;54366;51.980;5.856;2023-06-26T00:40:57;23.90;63.20
67529;DHT22;54366;51.980;5.856;2023-06-26T00:43:30;23.90;63.00
67529;DHT22;54366;51.980;5.856;2023-06-26T00:45:56;23.80;62.90
67529;DHT22;54366;51.980;5.856;2023-06-26T00:48:29;23.80;63.00
67529;DHT22;54366;51.980;5.856;2023-06-26T00:51:02;23.80;62.80
67529;DHT22;54366;51.980;5.856;2023-06-26T00:53:35;23.70;63.10
67529;DHT22;54366;51.980;5.856;2023-06-26T00:56:08;23.70;64.20
67529;DHT22;54366;51.980;5.856;2023-06-26T00:58:36;23.70;64.50
67529;DHT22;54366;51.980;5.856;2023-06-26T01:01:09;23.70;64.80
67529;DHT22;54366;51.980;5.856;2023-06-26T01:03:48;23.70;64.80
67529;DHT22;54366;51.980;5.856;2023-06-26T01:06:26;23.70;64.90
67529;DHT22;54366;51.980;5.856;2023-06-26T01:09:02;23.60;65.10
67529;DHT22;54366;51.980;5.856;2023-06-26T01:11:29;23.70;65.10
67529;DHT22;54366;51.980;5.856;2023-06-26T01:14:02;23.70;65.20
67529;DHT22;54366;51.980;5.856;2023-06-26T01:16:35;23.60;65.20
67529;DHT22;54366;51.980;5.856;2023-06-26T01:19:04;23.60;65.30
67529;DHT22;54366;51.980;5.856;2023-06-26T01:21:43;23.60;65.40
67529;DHT22;54366;51.980;5.856;2023-06-26T01:24:17;23.60;65.60
67529;DHT22;54366;51.980;5.856;2023-06-26T01:26:53;23.60;65.90
67529;DHT22;54366;51.980;5.856;2023-06-26T01:29:26;23.60;66.00
67529;DHT22;54366;51.980;5.856;2023-06-26T01:32:13;23.60;66.30
67529;DHT22;54366;51.980;5.856;2023-06-26T01:34:46;23.50;66.10
67529;DHT22;54366;51.980;5.856;2023-06-26T01:37:19;23.60;66.90
67529;DHT22;54366;51.980;5.856;2023-06-26T01:39:52;23.60;66.50
67529;DHT22;54366;51.980;5.856;2023-06-26T01:42:25;23.60;65.80
67529;DHT22;54366;51.980;5.856;2023-06-26T01:45:03;23.60;65.80
67529;DHT22;54366;51.980;5.856;2023-06-26T01:47:41;23.60;66.10
67529;DHT22;54366;51.980;5.856;2023-06-26T01:50:22;23.60;65.90
67529;DHT22;54366;51.980;5.856;2023-06-26T01:53:13;23.60;65.90
67529;DHT22;54366;51.980;5.856;2023-06-26T01:56:02;23.60;66.00
67529;DHT22;54366;51.980;5.856;2023-06-26T01:58:43;23.60;66.20
67529;DHT22;54366;51.980;5.856;2023-06-26T02:01:17;23.60;66.00
67529;DHT22;54366;51.980;5.856;2023-06-26T02:03:43;23.60;65.60
67529;DHT22;54366;51.980;5.856;2023-06-26T02:06:16;23.60;65.40
67529;DHT22;54366;51.980;5.856;2023-06-26T02:08:51;23.70;64.70
67529;DHT22;54366;51.980;5.856;2023-06-26T02:11:24;23.70;64.10
67529;DHT22;54366;51.980;5.856;2023-06-26T02:13:58;23.70;63.00
67529;DHT22;54366;51.980;5.856;2023-06-26T02:16:31;23.80;62.30
67529;DHT22;54366;51.980;5.856;2023-06-26T02:19:06;23.80;61.60
67529;DHT22;54366;51.980;5.856;2023-06-26T02:21:32;23.80;61.00
67529;DHT22;54366;51.980;5.856;2023-06-26T02:24:05;23.80;60.70
67529;DHT22;54366;51.980;5.856;2023-06-26T02:26:38;23.80;60.60
67529;DHT22;54366;51.980;5.856;2023-06-26T02:29:11;23.80;60.50
67529;DHT22;54366;51.980;5.856;2023-06-26T02:31:44;23.70;60.40
67529;DHT22;54366;51.980;5.856;2023-06-26T02:34:17;23.70;60.20
67529;DHT22;54366;51.980;5.856;2023-06-26T02:36:43;23.70;60.50
67529;DHT22;54366;51.980;5.856;2023-06-26T02:39:16;23.70;60.60
67529;DHT22;54366;51.980;5.856;2023-06-26T02:41:50;23.70;60.70
67529;DHT22;54366;51.980;5.856;2023-06-26T02:44:24;23.60;60.90
67529;DHT22;54366;51.980;5.856;2023-06-26T02:46:50;23.60;60.70
67529;DHT22;54366;51.980;5.856;2023-06-26T02:49:23;23.60;60.80
67529;DHT22;54366;51.980;5.856;2023-06-26T02:51:56;23.60;60.90
67529;DHT22;54366;51.980;5.856;2023-06-26T02:54:26;23.50;60.90
67529;DHT22;54366;51.980;5.856;2023-06-26T02:57:03;23.50;61.20
67529;DHT22;54366;51.980;5.856;2023-06-26T02:59:36;23.50;61.30
67529;DHT22;54366;51.980;5.856;2023-06-26T03:02:10;23.50;61.30
67529;DHT22;54366;51.980;5.856;2023-06-26T03:04:45;23.40;61.50
67529;DHT22;54366;51.980;5.856;2023-06-26T03:07:18;23.40;61.80
67529;DHT22;54366;51.980;5.856;2023-06-26T03:09:51;23.40;61.90
67529;DHT22;54366;51.980;5.856;2023-06-26T03:12:18;23.30;61.90
67529;DHT22;54366;51.980;5.856;2023-06-26T03:14:50;23.30;62.30
67529;DHT22;54366;51.980;5.856;2023-06-26T03:17:23;23.30;62.30
67529;DHT22;54366;51.980;5.856;2023-06-26T03:20:02;23.20;62.50
67529;DHT22;54366;51.980;5.856;2023-06-26T03:22:55;23.20;62.40
67529;DHT22;54366;51.980;5.856;2023-06-26T03:25:28;23.20;62.40
67529;DHT22;54366;51.980;5.856;2023-06-26T03:28:22;23.10;62.50
67529;DHT22;54366;51.980;5.856;2023-06-26T03:30:55;23.10;62.80
67529;DHT22;54366;51.980;5.856;2023-06-26T03:33:35;23.00;63.00
67529;DHT22;54366;51.980;5.856;2023-06-26T03:36:01;23.00;63.40
67529;DHT22;54366;51.980;5.856;2023-06-26T03:38:35;23.00;63.50
67529;DHT22;54366;51.980;5.856;2023-06-26T03:41:08;22.90;63.50
67529;DHT22;54366;51.980;5.856;2023-06-26T03:43:35;22.90;63.80
67529;DHT22;54366;51.980;5.856;2023-06-26T03:46:30;22.80;64.00
67529;DHT22;54366;51.980;5.856;2023-06-26T03:49:02;22.80;64.40
67529;DHT22;54366;51.980;5.856;2023-06-26T03:51:36;22.80;64.90
67529;DHT22;54366;51.980;5.856;2023-06-26T03:54:03;22.80;64.40
67529;DHT22;54366;51.980;5.856;2023-06-26T03:56:35;22.80;64.80
67529;DHT22;54366;51.980;5.856;2023-06-26T03:59:09;22.70;64.40
67529;DHT22;54366;51.980;5.856;2023-06-26T04:01:42;22.70;64.50
67529;DHT22;54366;51.980;5.856;2023-06-26T04:04:15;22.70;64.90
67529;DHT22;54366;51.980;5.856;2023-06-26T04:06:48;22.70;64.90
67529;DHT22;54366;51.980;5.856;2023-06-26T04:09:21;22.60;65.00
67529;DHT22;54366;51.980;5.856;2023-06-26T04:11:54;22.60;65.10
67529;DHT22;54366;51.980;5.856;2023-06-26T04:14:27;22.60;65.20
67529;DHT22;54366;51.980;5.856;2023-06-26T04:17:00;22.60;65.40
67529;DHT22;54366;51.980;5.856;2023-06-26T04:19:29;22.60;65.70
67529;DHT22;54366;51.980;5.856;2023-06-26T04:22:02;22.60;66.00
67529;DHT22;54366;51.980;5.856;2023-06-26T04:24:35;22.60;66.10
67529;DHT22;54366;51.980;5.856;2023-06-26T04:27:01;22.60;65.60
67529;DHT22;54366;51.980;5.856;2023-06-26T04:29:34;22.60;65.70
67529;DHT22;54366;51.980;5.856;2023-06-26T04:32:13;22.60;65.80
67529;DHT22;54366;51.980;5.856;2023-06-26T04:34:46;22.60;65.60
67529;DHT22;54366;51.980;5.856;2023-06-26T04:37:20;22.60;66.30
67529;DHT22;54366;51.980;5.856;2023-06-26T04:39:46;22.60;67.00
67529;DHT22;54366;51.980;5.856;2023-06-26T04:42:19;22.50;66.70
67529;DHT22;54366;51.980;5.856;2023-06-26T04:44:54;22.50;66.90
67529;DHT22;54366;51.980;5.856;2023-06-26T04:47:27;22.50;66.70
67529;DHT22;54366;51.980;5.856;2023-06-26T04:50:00;22.40;67.20
67529;DHT22;54366;51.980;5.856;2023-06-26T04:52:26;22.40;67.30
67529;DHT22;54366;51.980;5.856;2023-06-26T04:54:59;22.40;67.10
67529;DHT22;54366;51.980;5.856;2023-06-26T04:57:32;22.40;67.10
67529;DHT22;54366;51.980;5.856;2023-06-26T05:00:06;22.40;67.10
67529;DHT22;54366;51.980;5.856;2023-06-26T05:02:43;22.40;67.40
67529;DHT22;54366;51.980;5.856;2023-06-26T05:05:16;22.30;67.50
67529;DHT22;54366;51.980;5.856;2023-06-26T05:07:49;22.40;67.60
67529;DHT22;54366;51.980;5.856;2023-06-26T05:10:22;22.40;67.50
67529;DHT22;54366;51.980;5.856;2023-06-26T05:12:55;22.40;67.30
67529;DHT22;54366;51.980;5.856;2023-06-26T05:15:21;22.40;67.40
67529;DHT22;54366;51.980;5.856;2023-06-26T05:17:54;22.50;67.40
67529;DHT22;54366;51.980;5.856;2023-06-26T05:20:20;22.50;67.50
67529;DHT22;54366;51.980;5.856;2023-06-26T05:22:53;22.50;67.30
67529;DHT22;54366;51.980;5.856;2023-06-26T05:25:26;22.50;67.50
67529;DHT22;54366;51.980;5.856;2023-06-26T05:27:56;22.50;67.40
67529;DHT22;54366;51.980;5.856;2023-06-26T05:30:35;22.50;67.30
67529;DHT22;54366;51.980;5.856;2023-06-26T05:33:14;22.60;67.10
67529;DHT22;54366;51.980;5.856;2023-06-26T05:35:45;22.60;66.60
67529;DHT22;54366;51.980;5.856;2023-06-26T05:38:19;22.60;67.00
67529;DHT22;54366;51.980;5.856;2023-06-26T05:40:52;22.70;66.60
67529;DHT22;54366;51.980;5.856;2023-06-26T05:43:19;22.70;66.20
67529;DHT22;54366;51.980;5.856;2023-06-26T05:45:53;22.70;65.70
67529;DHT22;54366;51.980;5.856;2023-06-26T05:48:26;22.70;65.00
67529;DHT22;54366;51.980;5.856;2023-06-26T05:50:53;22.70;65.00
67529;DHT22;54366;51.980;5.856;2023-06-26T05:53:26;22.70;65.00
67529;DHT22;54366;51.980;5.856;2023-06-26T05:55:59;22.70;64.90
67529;DHT22;54366;51.980;5.856;2023-06-26T05:58:26;22.70;64.70
67529;DHT22;54366;51.980;5.856;2023-06-26T06:01:02;22.80;64.60
67529;DHT22;54366;51.980;5.856;2023-06-26T06:03:35;22.80;64.20
67529;DHT22;54366;51.980;5.856;2023-06-26T06:06:01;22.80;64.00
67529;DHT22;54366;51.980;5.856;2023-06-26T06:08:34;22.80;63.40
67529;DHT22;54366;51.980;5.856;2023-06-26T06:11:01;22.80;62.70
67529;DHT22;54366;51.980;5.856;2023-06-26T06:13:34;22.90;62.60
67529;DHT22;54366;51.980;5.856;2023-06-26T06:16:07;22.90;61.90
67529;DHT22;54366;51.980;5.856;2023-06-26T06:18:33;22.90;61.60
67529;DHT22;54366;51.980;5.856;2023-06-26T06:21:20;22.90;61.00
67529;DHT22;54366;51.980;5.856;2023-06-26T06:23:53;22.90;60.80
67529;DHT22;54366;51.980;5.856;2023-06-26T06:26:33;23.00;60.80
67529;DHT22;54366;51.980;5.856;2023-06-26T06:29:06;23.00;60.80
67529;DHT22;54366;51.980;5.856;2023-06-26T06:31:45;23.10;60.60
67529;DHT22;54366;51.980;5.856;2023-06-26T06:34:19;23.20;60.10
67529;DHT22;54366;51.980;5.856;2023-06-26T06:36:46;23.20;58.40
67529;DHT22;54366;51.980;5.856;2023-06-26T06:39:19;23.20;58.40
67529;DHT22;54366;51.980;5.856;2023-06-26T06:41:52;23.30;58.40
67529;DHT22;54366;51.980;5.856;2023-06-26T06:44:18;23.40;58.50
67529;DHT22;54366;51.980;5.856;2023-06-26T06:46:51;23.50;57.70
67529;DHT22;54366;51.980;5.856;2023-06-26T06:49:24;23.60;57.30
67529;DHT22;54366;51.980;5.856;2023-06-26T06:51:57;23.50;57.40
67529;DHT22;54366;51.980;5.856;2023-06-26T06:54:30;23.50;57.30
67529;DHT22;54366;51.980;5.856;2023-06-26T06:57:03;23.60;57.30
67529;DHT22;54366;51.980;5.856;2023-06-26T06:59:36;23.70;57.70
67529;DHT22;54366;51.980;5.856;2023-06-26T07:02:09;23.80;57.10
67529;DHT22;54366;51.980;5.856;2023-06-26T07:04:42;23.90;57.50
67529;DHT22;54366;51.980;5.856;2023-06-26T07:07:18;24.00;56.80
67529;DHT22;54366;51.980;5.856;2023-06-26T07:09:51;24.10;55.40
67529;DHT22;54366;51.980;5.856;2023-06-26T07:12:17;24.00;55.60
67529;DHT22;54366;51.980;5.856;2023-06-26T07:14:50;24.00;55.60
67529;DHT22;54366;51.980;5.856;2023-06-26T07:17:23;24.10;56.30
67529;DHT22;54366;51.980;5.856;2023-06-26T07:19:56;24.20;55.70
67529;DHT22;54366;51.980;5.856;2023-06-26T07:22:29;24.20;55.00
67529;DHT22;54366;51.980;5.856;2023-06-26T07:25:02;24.00;55.30
67529;DHT22;54366;51.980;5.856;2023-06-26T07:27:38;23.90;55.80
67529;DHT22;54366;51.980;5.856;2023-06-26T07:30:11;23.90;56.60
67529;DHT22;54366;51.980;5.856;2023-06-26T07:32:57;24.10;56.70
67529;DHT22;54366;51.980;5.856;2023-06-26T07:35:30;24.30;56.30
67529;DHT22;54366;51.980;5.856;2023-06-26T07:38:03;24.40;55.70
67529;DHT22;54366;51.980;5.856;2023-06-26T07:40:29;24.60;55.60
67529;DHT22;54366;51.980;5.856;2023-06-26T07:43:02;24.70;54.50
67529;DHT22;54366;51.980;5.856;2023-06-26T07:45:35;24.80;54.50
67529;DHT22;54366;51.980;5.856;2023-06-26T07:48:01;24.80;54.60
67529;DHT22;54366;51.980;5.856;2023-06-26T07:50:34;24.80;54.20
67529;DHT22;54366;51.980;5.856;2023-06-26T07:53:07;24.90;54.00
67529;DHT22;54366;51.980;5.856;2023-06-26T07:55:40;24.90;54.20
67529;DHT22;54366;51.980;5.856;2023-06-26T07:58:07;25.10;54.50
67529;DHT22;54366;51.980;5.856;2023-06-26T08:00:40;25.00;54.20
67529;DHT22;54366;51.980;5.856;2023-06-26T08:03:13;25.00;53.70
67529;DHT22;54366;51.980;5.856;2023-06-26T08:05:46;24.90;54.30
67529;DHT22;54366;51.980;5.856;2023-06-26T08:08:19;25.00;54.60
67529;DHT22;54366;51.980;5.856;2023-06-26T08:10:46;25.10;54.30
67529;DHT22;54366;51.980;5.856;2023-06-26T08:13:18;25.30;53.50
67529;DHT22;54366;51.980;5.856;2023-06-26T08:15:45;25.40;53.60
67529;DHT22;54366;51.980;5.856;2023-06-26T08:18:18;25.50;53.60
67529;DHT22;54366;51.980;5.856;2023-06-26T08:20:51;25.70;53.20
67529;DHT22;54366;51.980;5.856;2023-06-26T08:23:17;25.60;53.00
67529;DHT22;54366;51.980;5.856;2023-06-26T08:25:50;25.70;53.20
67529;DHT22;54366;51.980;5.856;2023-06-26T08:28:23;25.80;52.80
67529;DHT22;54366;51.980;5.856;2023-06-26T08:30:56;25.70;52.80
67529;DHT22;54366;51.980;5.856;2023-06-26T08:33:36;25.50;53.00
67529;DHT22;54366;51.980;5.856;2023-06-26T08:36:03;25.40;53.10
67529;DHT22;54366;51.980;5.856;2023-06-26T08:38:35;25.20;53.60
67529;DHT22;54366;51.980;5.856;2023-06-26T08:41:08;25.40;53.90
67529;DHT22;54366;51.980;5.856;2023-06-26T08:43:35;25.50;54.00
67529;DHT22;54366;51.980;5.856;2023-06-26T08:46:08;25.60;53.60
67529;DHT22;54366;51.980;5.856;2023-06-26T08:48:48;25.80;53.70
67529;DHT22;54366;51.980;5.856;2023-06-26T08:51:25;26.10;53.00
67529;DHT22;54366;51.980;5.856;2023-06-26T08:54:01;26.40;50.30
67529;DHT22;54366;51.980;5.856;2023-06-26T08:56:41;26.40;49.70
67529;DHT22;54366;51.980;5.856;2023-06-26T08:59:15;26.40;49.80
67529;DHT22;54366;51.980;5.856;2023-06-26T09:01:48;26.50;49.90
67529;DHT22;54366;51.980;5.856;2023-06-26T09:04:21;26.50;49.80
67529;DHT22;54366;51.980;5.856;2023-06-26T09:06:54;26.60;49.00
67529;DHT22;54366;51.980;5.856;2023-06-26T09:09:28;26.50;48.50
67529;DHT22;54366;51.980;5.856;2023-06-26T09:12:02;26.30;48.40
67529;DHT22;54366;51.980;5.856;2023-06-26T09:14:37;26.40;49.20
67529;DHT22;54366;51.980;5.856;2023-06-26T09:17:04;26.50;48.40
67529;DHT22;54366;51.980;5.856;2023-06-26T09:19:37;26.70;47.30
67529;DHT22;54366;51.980;5.856;2023-06-26T09:22:13;26.90;47.40
67529;DHT22;54366;51.980;5.856;2023-06-26T09:24:41;26.90;46.70
67529;DHT22;54366;51.980;5.856;2023-06-26T09:27:15;26.90;46.60
67529;DHT22;54366;51.980;5.856;2023-06-26T09:29:48;27.00;45.60
67529;DHT22;54366;51.980;5.856;2023-06-26T09:32:29;27.20;45.80
67529;DHT22;54366;51.980;5.856;2023-06-26T09:35:03;27.50;43.40
67529;DHT22;54366;51.980;5.856;2023-06-26T09:37:36;27.60;43.30
67529;DHT22;54366;51.980;5.856;2023-06-26T09:40:09;27.70;42.60
67529;DHT22;54366;51.980;5.856;2023-06-26T09:42:42;27.60;40.80
67529;DHT22;54366;51.980;5.856;2023-06-26T09:45:18;27.50;41.70
67529;DHT22;54366;51.980;5.856;2023-06-26T09:47:51;27.30;42.30
67529;DHT22;54366;51.980;5.856;2023-06-26T09:50:24;27.00;42.10
67529;DHT22;54366;51.980;5.856;2023-06-26T09:53:07;26.80;42.90
67529;DHT22;54366;51.980;5.856;2023-06-26T09:55:41;26.90;44.00
67529;DHT22;54366;51.980;5.856;2023-06-26T09:58:16;26.90;44.00
67529;DHT22;54366;51.980;5.856;2023-06-26T10:00:50;27.10;44.20
67529;DHT22;54366;51.980;5.856;2023-06-26T10:03:24;27.00;44.00
67529;DHT22;54366;51.980;5.856;2023-06-26T10:05:57;26.80;43.90
67529;DHT22;54366;51.980;5.856;2023-06-26T10:08:25;26.50;43.40
67529;DHT22;54366;51.980;5.856;2023-06-26T10:10:57;26.30;43.70
67529;DHT22;54366;51.980;5.856;2023-06-26T10:13:38;26.40;44.70
67529;DHT22;54366;51.980;5.856;2023-06-26T10:16:13;26.70;44.50
67529;DHT22;54366;51.980;5.856;2023-06-26T10:18:56;27.00;43.40
67529;DHT22;54366;51.980;5.856;2023-06-26T10:21:32;27.30;42.90
67529;DHT22;54366;51.980;5.856;2023-06-26T10:24:07;27.50;42.80
67529;DHT22;54366;51.980;5.856;2023-06-26T10:26:44;27.60;42.50
67529;DHT22;54366;51.980;5.856;2023-06-26T10:29:20;27.50;40.30
67529;DHT22;54366;51.980;5.856;2023-06-26T10:31:56;27.40;40.70
67529;DHT22;54366;51.980;5.856;2023-06-26T10:34:38;27.40;40.20
67529;DHT22;54366;51.980;5.856;2023-06-26T10:37:04;27.50;40.80
67529;DHT22;54366;51.980;5.856;2023-06-26T10:39:48;27.60;41.30
67529;DHT22;54366;51.980;5.856;2023-06-26T10:42:38;27.90;40.20
67529;DHT22;54366;51.980;5.856;2023-06-26T10:45:17;28.10;39.70
67529;DHT22;54366;51.980;5.856;2023-06-26T10:47:52;28.00;37.20
67529;DHT22;54366;51.980;5.856;2023-06-26T10:50:32;28.10;37.70
67529;DHT22;54366;51.980;5.856;2023-06-26T10:53:15;28.10;37.50
67529;DHT22;54366;51.980;5.856;2023-06-26T10:55:58;28.20;37.40
67529;DHT22;54366;51.980;5.856;2023-06-26T10:58:41;28.30;37.80
67529;DHT22;54366;51.980;5.856;2023-06-26T11:01:19;28.40;37.30
67529;DHT22;54366;51.980;5.856;2023-06-26T11:04:13;28.30;35.70
67529;DHT22;54366;51.980;5.856;2023-06-26T11:06:47;28.30;37.30
67529;DHT22;54366;51.980;5.856;2023-06-26T11:09:24;28.30;37.00
67529;DHT22;54366;51.980;5.856;2023-06-26T11:11:57;28.00;35.70
67529;DHT22;54366;51.980;5.856;2023-06-26T11:14:32;27.70;35.50
67529;DHT22;54366;51.980;5.856;2023-06-26T11:16:59;27.70;36.60
67529;DHT22;54366;51.980;5.856;2023-06-26T11:19:34;27.80;36.50
67529;DHT22;54366;51.980;5.856;2023-06-26T11:22:07;27.90;36.30
67529;DHT22;54366;51.980;5.856;2023-06-26T11:24:41;28.10;37.00
67529;DHT22;54366;51.980;5.856;2023-06-26T11:27:15;28.10;37.40
67529;DHT22;54366;51.980;5.856;2023-06-26T11:29:47;28.00;36.80
67529;DHT22;54366;51.980;5.856;2023-06-26T11:32:28;27.80;35.10
67529;DHT22;54366;51.980;5.856;2023-06-26T11:35:01;27.60;36.00
67529;DHT22;54366;51.980;5.856;2023-06-26T11:37:28;27.50;36.30
67529;DHT22;54366;51.980;5.856;2023-06-26T11:40:16;27.60;38.20
67529;DHT22;54366;51.980;5.856;2023-06-26T11:42:49;27.60;37.00
67529;DHT22;54366;51.980;5.856;2023-06-26T11:45:16;27.50;36.10
67529;DHT22;54366;51.980;5.856;2023-06-26T11:47:48;27.50;37.10
67529;DHT22;54366;51.980;5.856;2023-06-26T11:50:21;27.70;36.20
67529;DHT22;54366;51.980;5.856;2023-06-26T11:52:56;27.80;36.40
67529;DHT22;54366;51.980;5.856;2023-06-26T11:55:41;27.70;36.40
67529;DHT22;54366;51.980;5.856;2023-06-26T11:58:14;27.90;36.80
67529;DHT22;54366;51.980;5.856;2023-06-26T12:00:41;28.10;36.40
67529;DHT22;54366;51.980;5.856;2023-06-26T12:03:15;28.50;37.50
67529;DHT22;54366;51.980;5.856;2023-06-26T12:05:42;28.70;36.50
67529;DHT22;54366;51.980;5.856;2023-06-26T12:08:17;28.90;36.50
67529;DHT22;54366;51.980;5.856;2023-06-26T12:10:50;28.90;34.30
67529;DHT22;54366;51.980;5.856;2023-06-26T12:13:17;28.90;33.70
67529;DHT22;54366;51.980;5.856;2023-06-26T12:15:49;29.00;33.90
67529;DHT22;54366;51.980;5.856;2023-06-26T12:18:16;28.80;33.40
67529;DHT22;54366;51.980;5.856;2023-06-26T12:20:49;28.70;34.80
67529;DHT22;54366;51.980;5.856;2023-06-26T12:23:22;28.80;34.80
67529;DHT22;54366;51.980;5.856;2023-06-26T12:25:55;28.90;34.30
67529;DHT22;54366;51.980;5.856;2023-06-26T12:28:35;28.80;34.20
67529;DHT22;54366;51.980;5.856;2023-06-26T12:31:16;28.50;33.30
67529;DHT22;54366;51.980;5.856;2023-06-26T12:33:49;27.90;34.20
67529;DHT22;54366;51.980;5.856;2023-06-26T12:36:18;27.80;34.10
67529;DHT22;54366;51.980;5.856;2023-06-26T12:38:53;27.90;34.90
67529;DHT22;54366;51.980;5.856;2023-06-26T12:41:26;28.00;34.60
67529;DHT22;54366;51.980;5.856;2023-06-26T12:43:56;28.20;35.00
67529;DHT22;54366;51.980;5.856;2023-06-26T12:46:35;28.40;34.80
67529;DHT22;54366;51.980;5.856;2023-06-26T12:49:08;28.50;34.60
67529;DHT22;54366;51.980;5.856;2023-06-26T12:51:38;28.80;34.00
67529;DHT22;54366;51.980;5.856;2023-06-26T12:54:12;28.90;33.60
67529;DHT22;54366;51.980;5.856;2023-06-26T12:56:45;29.00;33.80
67529;DHT22;54366;51.980;5.856;2023-06-26T12:59:18;29.00;33.50
67529;DHT22;54366;51.980;5.856;2023-06-26T13:01:51;29.10;33.50
67529;DHT22;54366;51.980;5.856;2023-06-26T13:04:24;29.20;33.40
67529;DHT22;54366;51.980;5.856;2023-06-26T13:06:57;29.10;33.30
67529;DHT22;54366;51.980;5.856;2023-06-26T13:09:32;28.90;33.00
67529;DHT22;54366;51.980;5.856;2023-06-26T13:12:06;28.60;31.60
67529;DHT22;54366;51.980;5.856;2023-06-26T13:14:39;28.20;32.60
67529;DHT22;54366;51.980;5.856;2023-06-26T13:17:06;28.10;33.60
67529;DHT22;54366;51.980;5.856;2023-06-26T13:19:38;28.20;33.70
67529;DHT22;54366;51.980;5.856;2023-06-26T13:22:05;28.10;34.10
67529;DHT22;54366;51.980;5.856;2023-06-26T13:24:38;28.10;34.00
67529;DHT22;54366;51.980;5.856;2023-06-26T13:27:11;28.30;33.50
67529;DHT22;54366;51.980;5.856;2023-06-26T13:29:37;28.40;34.20
67529;DHT22;54366;51.980;5.856;2023-06-26T13:32:10;28.50;32.60
67529;DHT22;54366;51.980;5.856;2023-06-26T13:34:50;28.50;33.20
67529;DHT22;54366;51.980;5.856;2023-06-26T13:37:18;28.50;34.30
67529;DHT22;54366;51.980;5.856;2023-06-26T13:39:50;28.40;34.00
67529;DHT22;54366;51.980;5.856;2023-06-26T13:42:23;28.40;33.70
67529;DHT22;54366;51.980;5.856;2023-06-26T13:44:56;28.40;33.60
67529;DHT22;54366;51.980;5.856;2023-06-26T13:47:29;28.30;33.40
67529;DHT22;54366;51.980;5.856;2023-06-26T13:50:03;28.30;33.00
67529;DHT22;54366;51.980;5.856;2023-06-26T13:52:36;28.20;33.40
67529;DHT22;54366;51.980;5.856;2023-06-26T13:55:09;28.10;33.50
67529;DHT22;54366;51.980;5.856;2023-06-26T13:57:41;27.90;32.10
67529;DHT22;54366;51.980;5.856;2023-06-26T14:00:15;27.70;33.60
67529;DHT22;54366;51.980;5.856;2023-06-26T14:02:52;27.60;33.40
67529;DHT22;54366;51.980;5.856;2023-06-26T14:05:19;27.50;33.90
67529;DHT22;54366;51.980;5.856;2023-06-26T14:07:51;27.50;33.70
67529;DHT22;54366;51.980;5.856;2023-06-26T14:10:20;27.50;34.10
67529;DHT22;54366;51.980;5.856;2023-06-26T14:12:53;27.50;34.30
67529;DHT22;54366;51.980;5.856;2023-06-26T14:15:26;27.40;32.90
67529;DHT22;54366;51.980;5.856;2023-06-26T14:17:53;27.20;32.90
67529;DHT22;54366;51.980;5.856;2023-06-26T14:20:27;27.10;32.50
67529;DHT22;54366;51.980;5.856;2023-06-26T14:23:00;26.90;32.50
67529;DHT22;54366;51.980;5.856;2023-06-26T14:25:28;26.50;33.70
67529;DHT22;54366;51.980;5.856;2023-06-26T14:28:00;26.40;34.10
67529;DHT22;54366;51.980;5.856;2023-06-26T14:30:40;26.40;35.60
67529;DHT22;54366;51.980;5.856;2023-06-26T14:33:19;26.30;32.50
67529;DHT22;54366;51.980;5.856;2023-06-26T14:35:52;26.00;33.70
67529;DHT22;54366;51.980;5.856;2023-06-26T14:38:25;25.90;33.70
67529;DHT22;54366;51.980;5.856;2023-06-26T14:40:58;25.80;35.60
67529;DHT22;54366;51.980;5.856;2023-06-26T14:43:25;25.90;35.40
67529;DHT22;54366;51.980;5.856;2023-06-26T14:45:57;25.90;36.00
67529;DHT22;54366;51.980;5.856;2023-06-26T14:48:30;26.00;35.60
67529;DHT22;54366;51.980;5.856;2023-06-26T14:51:03;26.10;36.10
67529;DHT22;54366;51.980;5.856;2023-06-26T14:53:36;26.30;36.10
67529;DHT22;54366;51.980;5.856;2023-06-26T14:56:10;26.30;35.60
67529;DHT22;54366;51.980;5.856;2023-06-26T14:58:42;26.40;36.00
67529;DHT22;54366;51.980;5.856;2023-06-26T15:01:15;26.40;35.60
67529;DHT22;54366;51.980;5.856;2023-06-26T15:03:48;26.40;35.90
67529;DHT22;54366;51.980;5.856;2023-06-26T15:06:15;26.40;35.60
67529;DHT22;54366;51.980;5.856;2023-06-26T15:08:47;26.30;34.00
67529;DHT22;54366;51.980;5.856;2023-06-26T15:11:20;26.10;35.20
67529;DHT22;54366;51.980;5.856;2023-06-26T15:13:54;26.20;36.90
67529;DHT22;54366;51.980;5.856;2023-06-26T15:16:21;26.20;34.90
67529;DHT22;54366;51.980;5.856;2023-06-26T15:18:53;26.10;34.40
67529;DHT22;54366;51.980;5.856;2023-06-26T15:21:26;26.00;35.80
67529;DHT22;54366;51.980;5.856;2023-06-26T15:23:53;26.10;36.30
67529;DHT22;54366;51.980;5.856;2023-06-26T15:26:26;26.10;36.30
67529;DHT22;54366;51.980;5.856;2023-06-26T15:28:53;26.10;36.80
67529;DHT22;54366;51.980;5.856;2023-06-26T15:31:33;26.20;36.20
67529;DHT22;54366;51.980;5.856;2023-06-26T15:34:05;26.00;36.00
67529;DHT22;54366;51.980;5.856;2023-06-26T15:36:45;26.00;36.90
67529;DHT22;54366;51.980;5.856;2023-06-26T15:39:18;26.00;36.30
67529;DHT22;54366;51.980;5.856;2023-06-26T15:41:45;26.00;36.50
67529;DHT22;54366;51.980;5.856;2023-06-26T15:44:17;26.00;36.30
67529;DHT22;54366;51.980;5.856;2023-06-26T15:46:51;25.90;36.10
67529;DHT22;54366;51.980;5.856;2023-06-26T15:49:23;25.60;35.80
67529;DHT22;54366;51.980;5.856;2023-06-26T15:51:56;25.40;37.10
67529;DHT22;54366;51.980;5.856;2023-06-26T15:54:23;25.30;36.40
67529;DHT22;54366;51.980;5.856;2023-06-26T15:56:57;25.10;36.20
67529;DHT22;54366;51.980;5.856;2023-06-26T15:59:24;25.00;37.00
67529;DHT22;54366;51.980;5.856;2023-06-26T16:01:56;25.00;37.20
67529;DHT22;54366;51.980;5.856;2023-06-26T16:04:23;25.10;38.00
67529;DHT22;54366;51.980;5.856;2023-06-26T16:06:55;25.10;37.10